Sunday, July 22, 2018, 6:20 PM EDT
Back to Local

KBID, Block Island, Block Island State Airport

Location: Block Island, RI, United States Lat: 41.167
Local Time: 6:20 PM EDT (22:20 GMT) Lon: -71.567
Time Zone: US/Eastern Elev: 108 ft

Show me the last for .
Show Decoded

2018-07-22 17:56 METAR KBID 222156Z AUTO 13013KT 9SM -RA SCT007 BKN033 OVC090 22/22 A3009 RMK AO2
                 RAB37 SLP191 P0000 T02220217 =
2018-07-22 17:48 METAR KBID 222148Z AUTO 14012KT 10SM -RA SCT007 BKN032 OVC100 22/22 A3009 RMK
                 AO2 RAB37 P0000 =
2018-07-22 17:30 METAR KBID 222130Z AUTO 14014KT 10SM SCT027 BKN036 OVC100 22/21 A3009 RMK AO2 =
2018-07-22 17:17 METAR KBID 222117Z AUTO 14014G19KT 10SM SCT006 BKN027 OVC070 22/21 A3009 RMK AO2
                 =
2018-07-22 16:56 METAR KBID 222056Z AUTO 13008KT 10SM OVC006 22/21 A3009 RMK AO2 SLP192 T02170211
                 53006 =
2018-07-22 16:18 METAR KBID 222018Z AUTO 12012KT 10SM BKN008 BKN100 22/21 A3009 RMK AO2 CIG
                 006V010 =
2018-07-22 16:16 METAR KBID 222016Z AUTO 12013KT 10SM SCT010 BKN100 22/21 A3008 RMK AO2 =
2018-07-22 15:56 METAR KBID 221956Z AUTO 11009KT 10SM OVC010 22/21 A3008 RMK AO2 CIG 008V013
                 SLP188 T02220211 =
2018-07-22 14:56 METAR KBID 221856Z AUTO 14011KT 10SM OVC010 23/21 A3008 RMK AO2 SLP187 T02330211
                 =
2018-07-22 14:27 METAR KBID 221827Z AUTO 14012KT 10SM BKN012 BKN026 23/21 A3007 RMK AO2 =
2018-07-22 13:56 METAR KBID 221756Z AUTO 14012KT 10SM CLR 24/21 A3007 RMK AO2 RAB06E21 SLP186
                 P0000 6//// T02390211 10239 20206 53008 =
2018-07-22 12:56 METAR KBID 221656Z AUTO 16013KT 10SM FEW026 SCT046 22/21 A3006 RMK AO2 SLP183
                 T02220206 =
2018-07-22 11:56 METAR KBID 221556Z AUTO 17012KT 9SM FEW034 22/22 A3005 RMK AO2 RAE53 SLP180
                 P0000 T02220217 =
2018-07-22 11:07 METAR KBID 221507Z AUTO 16015G21KT 9SM -RA SCT005 BKN031 OVC055 22/22 A3005 RMK
                 AO2 P0000 =
2018-07-22 10:56 METAR KBID 221456Z AUTO 16014G20KT 10SM -RA BKN005 OVC060 22/21 A3005 RMK AO2
                 CIG 004V009 SLP178 P0001 60012 T02170211 53010 =
2018-07-22 09:56 METAR KBID 221356Z AUTO 15012KT 8SM -RA OVC005 22/21 A3004 RMK AO2 CIG 003V008
                 SLP174 P0003 T02170211 =
2018-07-22 09:39 METAR KBID 221339Z AUTO 15013KT 10SM -RA BKN005 BKN070 OVC085 21/21 A3003 RMK
                 AO2 CIG 004V015 P0003 =
2018-07-22 09:33 METAR KBID 221333Z AUTO 15012KT 10SM -RA SCT007 BKN075 OVC090 21/21 A3003 RMK
                 AO2 P0002 =
2018-07-22 08:56 METAR KBID 221256Z AUTO 14010KT 6SM -RA BR BKN070 OVC085 21/20 A3002 RMK AO2
                 SLP168 P0008 T02060200 =
2018-07-22 07:56 METAR KBID 221156Z AUTO 15012KT 6SM -RA BR FEW014 BKN075 OVC085 21/19 A3002 RMK
                 AO2 PK WND 15031/1104 SLP167 P0014 60020 7//// T02060194 10222 20183 53012 =
2018-07-22 07:27 METAR KBID 221127Z AUTO 16019G26KT 6SM -RA BR SCT006 BKN050 OVC085 21/20 A3000
                 RMK AO2 PK WND 15031/1104 PRESRR P0011 =
2018-07-22 07:12 METAR KBID 221112Z AUTO 16019G31KT 3SM -RA BR BKN006 OVC060 22/22 A2997 RMK AO2
                 PK WND 15031/1104 CIG 003V010 P0010 =
2018-07-22 07:03 METAR KBID 221103Z AUTO 14019G28KT 2SM -RA BR OVC004 22/22 A2997 RMK AO2 PK WND
                 15028/1103 VIS 1 1/2V3 CIG 003V007 P0007 =
2018-07-22 06:56 METAR KBID 221056Z AUTO 13013G23KT 3SM -RA BR OVC004 22/22 A2997 RMK AO2 CIG
                 003V007 SLP151 P0006 T02170217 =
2018-07-22 05:56 METAR KBID 220956Z AUTO 11011G18KT 3SM -RA BR OVC002 21/21 A2997 RMK AO2 SLP151
                 P0000 T02060206 =
2018-07-22 05:33 METAR KBID 220933Z AUTO 10012G20KT 2 1/2SM BR OVC002 20/20 A2998 RMK AO2 RAE27
                 P0000 =
2018-07-22 05:10 METAR KBID 220910Z AUTO 10012G19KT 1 1/4SM -RA BR OVC002 19/19 A2998 RMK AO2
                 P0000 =
2018-07-22 04:56 METAR KBID 220856Z AUTO 09014G20KT 3/4SM -RA BR OVC002 19/19 A2998 RMK AO2 RAB34
                 SLP155 P0000 60000 T01940194 58010 =
2018-07-22 04:03 METAR KBID 220803Z AUTO 09012G18KT 3/4SM BR OVC002 19/19 A2999 RMK AO2 =
2018-07-22 03:56 METAR KBID 220756Z AUTO 09013G17KT 1SM BR OVC002 19/19 A3000 RMK AO2 SLP161
                 T01940194 =
2018-07-22 03:34 METAR KBID 220734Z AUTO 10012G17KT 1 1/2SM BR OVC002 19/19 A3001 RMK AO2 =
2018-07-22 03:18 METAR KBID 220718Z AUTO 10015G20KT 2 1/2SM BR OVC002 19/19 A3001 RMK AO2 =
2018-07-22 02:56 METAR KBID 220656Z AUTO 09011G20KT 4SM BR OVC002 19/19 A3001 RMK AO2 RAB0559E31
                 SLP166 P0000 T01890189 =
2018-07-22 01:56 METAR KBID 220556Z AUTO 09012G21KT 4SM BR OVC002 18/18 A3002 RMK AO2 RAE22
                 SLP170 P0000 60003 T01830183 10183 20178 56016 =
2018-07-22 01:42 METAR KBID 220542Z AUTO 09015G20KT 3SM BR OVC002 18/18 A3002 RMK AO2 RAE22 P0000
                 =
2018-07-22 00:56 METAR KBID 220456Z AUTO 08013G19KT 1 1/4SM -RA BR OVC002 18/18 A3003 RMK AO2
                 RAB13 SLP173 P0003 T01780178 =
2018-07-22 00:30 METAR KBID 220430Z AUTO 08013G21KT 1 3/4SM -RA BR OVC002 18/18 A3004 RMK AO2
                 RAB13 P0000 =
2018-07-21 23:56 METAR KBID 220356Z AUTO 08014G20KT 5SM BR OVC002 18/18 A3005 RMK AO2 SLP179
                 T01830183 402110156 =
2018-07-21 22:56 METAR KBID 220256Z AUTO 08015G18KT 7SM OVC002 18/18 A3007 RMK AO2 SLP186
                 T01780178 56005 =
2018-07-21 22:51 METAR KBID 220251Z AUTO 07010KT 8SM OVC002 18/18 A3007 RMK AO2 =
2018-07-21 21:56 METAR KBID 220156Z AUTO 08012G20KT 10SM OVC004 18/18 A3008 RMK AO2 SLP190
                 T01780178 =
2018-07-21 21:31 METAR KBID 220131Z AUTO 07011G19KT 10SM OVC004 18/17 A3009 RMK AO2 =
2018-07-21 20:56 METAR KBID 220056Z AUTO 08009G17KT 10SM OVC006 18/17 A3009 RMK AO2 SLP191
                 T01780172 =
2018-07-21 19:56 METAR KBID 212356Z AUTO 08012G16KT 10SM OVC006 18/17 A3009 RMK AO2 SLP192 6////
                 T01780167 10200 20178 56003 =
2018-07-21 19:36 METAR KBID 212336Z AUTO 09010G18KT 10SM BKN006 BKN055 18/17 A3009 RMK AO2 =
2018-07-21 18:56 METAR KBID 212256Z AUTO 09013G18KT 10SM FEW006 BKN055 18/17 A3010 RMK AO2 SLP194
                 T01830167 =

Support USWX by starting your Amazon purchase here.